createdAt,value
2022-11-09T00:00:02.959Z,79.35
2022-11-09T00:02:08.765Z,78.28
2022-11-09T00:04:13.199Z,75.35
2022-11-09T00:06:17.597Z,69.97
2022-11-09T00:08:21.737Z,84.10
2022-11-09T00:10:26.220Z,76.40
2022-11-09T00:12:30.441Z,77.82
2022-11-09T00:14:34.814Z,69.93
2022-11-09T00:16:40.420Z,73.63
2022-11-09T00:18:47.569Z,70.07
2022-11-09T00:20:51.770Z,78.75
2022-11-09T00:22:56.064Z,83.00
2022-11-09T00:25:00.195Z,76.18
2022-11-09T00:27:04.467Z,80.30
2022-11-09T00:29:08.918Z,74.25
2022-11-09T00:31:14.454Z,83.20
2022-11-09T00:33:20.380Z,77.10
2022-11-09T00:35:24.746Z,82.30
2022-11-09T00:37:31.367Z,70.57
2022-11-09T00:39:35.553Z,81.32
2022-11-09T00:41:39.766Z,82.05
2022-11-09T00:43:43.932Z,83.30
2022-11-09T00:45:49.212Z,83.65
2022-11-09T00:47:53.355Z,88.20
2022-11-09T00:49:59.078Z,80.60
2022-11-09T00:52:03.255Z,88.65
2022-11-09T00:54:08.350Z,85.15
2022-11-09T00:56:14.129Z,81.75
2022-11-09T00:58:19.028Z,92.57
2022-11-09T01:00:25.187Z,83.38
2022-11-09T01:02:32.453Z,81.28
2022-11-09T01:04:36.699Z,88.28
2022-11-09T01:06:42.344Z,90.35
2022-11-09T01:08:48.374Z,87.70
2022-11-09T01:10:53.125Z,87.85
2022-11-09T01:13:00.329Z,85.90
2022-11-09T01:15:04.952Z,85.40
2022-11-09T01:17:11.231Z,92.65
2022-11-09T01:19:15.504Z,83.07
2022-11-09T01:21:19.573Z,94.90
2022-11-09T01:23:25.327Z,98.32
2022-11-09T01:25:30.110Z,87.50
2022-11-09T01:27:34.874Z,94.10
2022-11-09T01:29:39.091Z,95.30
2022-11-09T01:31:43.804Z,93.53
2022-11-09T01:33:48.223Z,97.88
2022-11-09T01:35:52.399Z,85.95
2022-11-09T01:37:56.477Z,94.18
2022-11-09T01:40:02.026Z,92.00
2022-11-09T01:42:09.265Z,86.65
2022-11-09T01:44:15.161Z,89.22
2022-11-09T01:46:25.669Z,97.75
2022-11-09T01:48:37.089Z,88.22
2022-11-09T01:50:45.166Z,91.60
2022-11-09T01:52:50.920Z,81.20
2022-11-09T01:55:00.325Z,85.63
2022-11-09T01:57:11.613Z,84.07
2022-11-09T01:59:20.739Z,84.82
2022-11-09T02:01:25.104Z,87.20
2022-11-09T02:03:34.349Z,85.55
2022-11-09T02:05:40.745Z,87.95
2022-11-09T02:07:47.090Z,91.32
2022-11-09T02:09:57.016Z,89.15
2022-11-09T02:12:02.940Z,82.53
2022-11-09T02:14:09.334Z,90.55
2022-11-09T02:16:15.581Z,88.18
2022-11-09T02:18:20.286Z,92.32
2022-11-09T02:20:26.957Z,88.47
2022-11-09T02:22:31.175Z,83.78
2022-11-09T02:24:35.720Z,91.60
2022-11-09T02:26:47.338Z,85.13
2022-11-09T02:28:52.732Z,87.30
2022-11-09T02:30:58.726Z,92.95
2022-11-09T02:33:04.193Z,94.03
2022-11-09T02:35:09.092Z,93.35
2022-11-09T02:37:27.442Z,93.30
2022-11-09T02:39:32.180Z,90.38
2022-11-09T02:41:41.533Z,86.75
2022-11-09T02:43:45.909Z,82.90
2022-11-09T02:45:51.429Z,90.30
2022-11-09T02:47:56.949Z,95.75
2022-11-09T02:50:01.197Z,87.70
2022-11-09T02:52:07.031Z,87.35
2022-11-09T02:54:12.628Z,81.57
2022-11-09T02:56:17.926Z,92.38
2022-11-09T02:58:22.039Z,92.20
2022-11-09T03:00:27.602Z,79.47
2022-11-09T03:02:32.630Z,82.65
2022-11-09T03:04:37.223Z,91.80
2022-11-09T03:06:42.303Z,85.32
2022-11-09T03:08:50.397Z,89.28
2022-11-09T03:10:56.196Z,91.20
2022-11-09T03:13:00.660Z,84.25
2022-11-09T03:15:08.638Z,87.97
2022-11-09T03:17:16.860Z,86.40
2022-11-09T03:19:21.328Z,87.25
2022-11-09T03:21:29.421Z,81.43
2022-11-09T03:23:34.215Z,87.80
2022-11-09T03:25:39.874Z,75.95
2022-11-09T03:27:45.517Z,77.18
2022-11-09T03:29:50.552Z,84.53
2022-11-09T03:31:54.889Z,76.38
2022-11-09T03:33:59.284Z,89.70
2022-11-09T03:36:04.039Z,81.93
2022-11-09T03:38:08.407Z,83.68
2022-11-09T03:40:14.088Z,86.22
2022-11-09T03:42:19.298Z,89.18
2022-11-09T03:44:24.810Z,88.85
2022-11-09T03:46:29.006Z,89.25
2022-11-09T03:48:33.793Z,83.45
2022-11-09T03:50:40.498Z,80.97
2022-11-09T03:52:49.310Z,86.90
2022-11-09T03:54:53.479Z,88.97
2022-11-09T03:56:57.655Z,93.78
2022-11-09T03:59:04.155Z,92.93
2022-11-09T04:01:10.958Z,84.68
2022-11-09T04:03:15.244Z,84.05
2022-11-09T04:05:19.928Z,90.80
2022-11-09T04:07:24.138Z,82.25
2022-11-09T04:09:28.277Z,81.85
2022-11-09T04:11:32.513Z,83.30
2022-11-09T04:13:36.674Z,80.68
2022-11-09T04:15:41.053Z,87.10
2022-11-09T04:17:46.711Z,74.68
2022-11-09T04:19:50.965Z,81.38
2022-11-09T04:21:55.121Z,84.47
2022-11-09T04:23:59.270Z,80.20
2022-11-09T04:26:03.455Z,77.97
2022-11-09T04:28:08.923Z,67.43
2022-11-09T04:30:13.727Z,70.95
2022-11-09T04:32:17.921Z,71.70
2022-11-09T04:34:23.491Z,69.82
2022-11-09T04:36:27.783Z,75.63
2022-11-09T04:38:32.215Z,67.85
2022-11-09T04:40:37.537Z,74.63
2022-11-09T04:42:42.130Z,68.80
2022-11-09T04:44:46.237Z,76.78
2022-11-09T04:46:50.469Z,69.85
2022-11-09T04:48:54.639Z,78.50
2022-11-09T04:51:03.668Z,65.30
2022-11-09T04:53:09.590Z,76.85
2022-11-09T04:55:14.105Z,70.82
2022-11-09T04:57:18.514Z,82.18
2022-11-09T04:59:22.739Z,80.00
2022-11-09T05:01:26.926Z,71.07
2022-11-09T05:03:31.215Z,83.78
2022-11-09T05:05:36.742Z,101.80
2022-11-09T05:07:42.354Z,115.38
2022-11-09T05:09:46.706Z,121.78
2022-11-09T05:11:53.219Z,135.82
2022-11-09T05:13:57.435Z,110.25
2022-11-09T05:16:02.916Z,98.47
2022-11-09T05:18:09.144Z,122.00
2022-11-09T05:20:14.012Z,126.32
2022-11-09T05:22:35.617Z,119.20
2022-11-09T05:24:41.251Z,156.52
2022-11-09T05:26:50.610Z,145.13
2022-11-09T05:28:57.651Z,139.30
2022-11-09T05:31:03.538Z,95.60
2022-11-09T05:33:07.843Z,136.57
2022-11-09T05:35:12.112Z,117.63
2022-11-09T05:37:17.612Z,108.45
2022-11-09T05:39:21.903Z,83.28
2022-11-09T05:41:27.839Z,86.97
2022-11-09T05:43:32.037Z,85.40
2022-11-09T05:45:44.662Z,86.82
2022-11-09T05:47:49.530Z,89.63
2022-11-09T05:49:54.195Z,104.15
2022-11-09T05:51:58.920Z,92.75
2022-11-09T05:54:03.643Z,96.25
2022-11-09T05:56:10.678Z,78.82
2022-11-09T05:58:16.604Z,85.20
2022-11-09T06:00:21.837Z,83.47
2022-11-09T06:02:27.550Z,92.22
2022-11-09T06:04:31.771Z,78.35
2022-11-09T06:06:35.925Z,78.95
2022-11-09T06:08:40.289Z,79.00
2022-11-09T06:10:44.756Z,89.63
2022-11-09T06:12:52.074Z,111.25
2022-11-09T06:14:58.390Z,79.60
2022-11-09T06:17:02.604Z,83.25
2022-11-09T06:19:06.936Z,79.82
2022-11-09T06:21:11.869Z,87.25
2022-11-09T06:23:16.276Z,88.32
2022-11-09T06:25:20.582Z,92.47
2022-11-09T06:27:25.006Z,89.45
2022-11-09T06:29:29.593Z,91.28
2022-11-09T06:31:35.291Z,99.18
2022-11-09T06:33:39.689Z,87.10
2022-11-09T06:35:44.075Z,90.70
2022-11-09T06:37:48.197Z,89.32
2022-11-09T06:39:52.943Z,87.25
2022-11-09T06:41:57.287Z,85.00
2022-11-09T06:44:02.238Z,87.25
2022-11-09T06:46:06.938Z,79.85
2022-11-09T06:48:12.577Z,83.93
2022-11-09T06:50:16.955Z,78.25
2022-11-09T06:52:21.015Z,81.32
2022-11-09T06:54:25.170Z,104.40
2022-11-09T06:56:29.312Z,73.97
2022-11-09T06:58:33.792Z,75.82
2022-11-09T07:00:38.773Z,85.05
2022-11-09T07:02:44.281Z,70.35
2022-11-09T07:04:52.779Z,72.18
2022-11-09T07:06:57.386Z,73.65
2022-11-09T07:09:01.547Z,70.18
2022-11-09T07:11:06.966Z,79.88
2022-11-09T07:13:12.645Z,71.05
2022-11-09T07:15:18.570Z,67.57
2022-11-09T07:17:23.030Z,70.18
2022-11-09T07:19:27.351Z,69.28
2022-11-09T07:21:33.126Z,67.68
2022-11-09T07:23:40.075Z,79.20
2022-11-09T07:25:44.662Z,66.95
2022-11-09T07:27:49.123Z,68.85
2022-11-09T07:29:53.438Z,73.28
2022-11-09T07:31:57.984Z,68.07
2022-11-09T07:34:04.959Z,70.82
2022-11-09T07:36:10.784Z,67.68
2022-11-09T07:38:17.232Z,73.85
2022-11-09T07:40:21.927Z,76.28
2022-11-09T07:42:26.759Z,70.32
2022-11-09T07:44:32.096Z,70.60
2022-11-09T07:46:36.792Z,75.28
2022-11-09T07:48:41.046Z,64.03
2022-11-09T07:50:46.814Z,70.47
2022-11-09T07:52:51.965Z,82.10
2022-11-09T07:54:58.118Z,68.25
2022-11-09T07:57:02.290Z,71.40
2022-11-09T07:59:06.720Z,64.88
2022-11-09T08:01:11.904Z,64.78
2022-11-09T08:03:16.183Z,67.88
2022-11-09T08:05:20.788Z,63.72
2022-11-09T08:07:25.122Z,72.35
2022-11-09T08:09:30.100Z,63.08
2022-11-09T08:11:35.739Z,60.95
2022-11-09T08:13:39.788Z,68.53
2022-11-09T08:15:44.618Z,72.35
2022-11-09T08:17:48.750Z,70.85
2022-11-09T08:19:52.881Z,69.28
2022-11-09T08:21:57.975Z,70.32
2022-11-09T08:24:02.154Z,76.32
2022-11-09T08:26:07.861Z,82.75
2022-11-09T08:28:16.328Z,74.07
2022-11-09T08:30:22.427Z,74.40
2022-11-09T08:32:26.628Z,75.65
2022-11-09T08:34:30.825Z,63.05
2022-11-09T08:36:36.279Z,57.90
2022-11-09T08:38:41.164Z,53.50
2022-11-09T08:40:45.362Z,55.50
2022-11-09T08:42:49.553Z,55.53
2022-11-09T08:44:55.004Z,62.38
2022-11-09T08:46:59.089Z,61.92
2022-11-09T08:49:03.272Z,57.90
2022-11-09T08:51:07.575Z,68.45
2022-11-09T08:53:12.187Z,51.97
2022-11-09T08:55:16.405Z,55.97
2022-11-09T08:57:21.090Z,60.05
2022-11-09T08:59:25.364Z,54.97
2022-11-09T09:01:30.902Z,57.58
2022-11-09T09:03:35.093Z,57.45
2022-11-09T09:05:39.810Z,66.95
2022-11-09T09:07:44.434Z,59.42
2022-11-09T09:09:49.150Z,58.58
2022-11-09T09:11:53.427Z,58.55
2022-11-09T09:13:57.573Z,55.28
2022-11-09T09:16:11.244Z,63.20
2022-11-09T09:18:16.912Z,60.33
2022-11-09T09:20:21.043Z,55.75
2022-11-09T09:22:25.188Z,67.38
2022-11-09T09:24:29.444Z,66.00
2022-11-09T09:26:35.223Z,51.92
2022-11-09T09:28:39.505Z,43.80
2022-11-09T09:30:43.633Z,43.85
2022-11-09T09:32:47.877Z,44.03
2022-11-09T09:34:53.362Z,38.30
2022-11-09T09:36:57.542Z,47.33
2022-11-09T09:39:01.662Z,49.25
2022-11-09T09:41:08.115Z,48.63
2022-11-09T09:43:32.131Z,40.75
2022-11-09T09:45:41.365Z,47.58
2022-11-09T09:47:51.471Z,39.73
2022-11-09T09:50:01.627Z,42.08
2022-11-09T09:52:15.696Z,43.40
2022-11-09T09:54:22.857Z,44.22
2022-11-09T09:56:31.661Z,43.75
2022-11-09T09:58:39.086Z,45.72
2022-11-09T10:00:44.299Z,41.33
2022-11-09T10:02:49.608Z,40.45
2022-11-09T10:04:57.572Z,40.35
2022-11-09T10:07:08.941Z,39.10
2022-11-09T10:09:25.080Z,39.60
2022-11-09T10:11:38.095Z,36.53
2022-11-09T10:13:57.921Z,43.25
2022-11-09T10:16:11.257Z,43.78
2022-11-09T10:18:27.709Z,43.42
2022-11-09T10:20:53.255Z,38.10
2022-11-09T10:23:08.373Z,42.30
2022-11-09T10:25:32.088Z,42.30
2022-11-09T10:27:49.350Z,43.83
2022-11-09T10:29:53.595Z,40.55
2022-11-09T10:32:02.761Z,45.25
2022-11-09T10:34:18.342Z,42.17
2022-11-09T10:36:33.170Z,39.45
2022-11-09T10:38:43.377Z,41.78
2022-11-09T10:41:17.883Z,38.70
2022-11-09T10:43:40.463Z,40.05
2022-11-09T10:46:05.663Z,45.83
2022-11-09T10:48:34.029Z,36.92
2022-11-09T10:50:56.617Z,36.85
2022-11-09T10:53:22.773Z,38.80
2022-11-09T10:55:53.621Z,37.70
2022-11-09T10:58:26.615Z,38.45
2022-11-09T11:01:04.223Z,45.55
2022-11-09T11:03:27.806Z,40.50
2022-11-09T11:05:58.878Z,45.92
2022-11-09T11:08:25.689Z,43.92
2022-11-09T11:10:49.177Z,47.10
2022-11-09T11:13:25.702Z,37.50
2022-11-09T11:15:48.570Z,47.20
2022-11-09T11:18:20.719Z,47.08
2022-11-09T11:20:43.425Z,38.97
2022-11-09T11:23:14.321Z,40.30
2022-11-09T11:25:53.025Z,45.88
2022-11-09T11:28:23.116Z,49.88
2022-11-09T11:30:45.879Z,45.63
2022-11-09T11:33:16.096Z,42.60
2022-11-09T11:35:44.733Z,46.55
2022-11-09T11:38:20.002Z,47.60
2022-11-09T11:41:07.207Z,46.13
2022-11-09T11:43:43.724Z,46.67
2022-11-09T11:46:15.877Z,47.97
2022-11-09T11:49:08.789Z,91.30
2022-11-09T11:51:41.472Z,45.03
2022-11-09T11:54:15.073Z,48.63
2022-11-09T11:56:43.405Z,47.08
2022-11-09T11:59:26.807Z,54.08
2022-11-09T12:02:16.053Z,43.22
2022-11-09T12:05:20.878Z,48.17
2022-11-09T12:07:57.525Z,51.00
2022-11-09T12:10:31.785Z,53.30
2022-11-09T12:13:03.259Z,52.13
2022-11-09T12:15:37.494Z,54.80
2022-11-09T12:18:15.092Z,49.95
2022-11-09T12:20:44.654Z,50.63
2022-11-09T12:23:35.901Z,41.45
2022-11-09T12:26:14.825Z,48.67
2022-11-09T12:29:09.161Z,49.80
2022-11-09T12:31:44.410Z,48.40
2022-11-09T12:34:17.023Z,55.40
2022-11-09T12:36:44.122Z,58.97
2022-11-09T12:39:14.141Z,46.80
2022-11-09T12:41:39.900Z,60.05
2022-11-09T12:44:07.857Z,51.40
2022-11-09T12:46:36.412Z,48.30
2022-11-09T12:49:03.291Z,48.05
2022-11-09T12:51:26.419Z,54.55
2022-11-09T12:53:48.990Z,57.35
2022-11-09T12:56:18.303Z,46.03
2022-11-09T12:58:41.456Z,51.13
2022-11-09T13:01:07.521Z,46.90
2022-11-09T13:03:32.209Z,49.08
2022-11-09T13:06:17.991Z,44.20
2022-11-09T13:08:42.367Z,46.45
2022-11-09T13:11:23.407Z,46.60
2022-11-09T13:13:47.196Z,46.83
2022-11-09T13:16:34.737Z,48.15
2022-11-09T13:18:57.484Z,51.80
2022-11-09T13:21:39.219Z,45.85
2022-11-09T13:24:27.868Z,44.08
2022-11-09T13:26:59.363Z,48.50
2022-11-09T13:29:27.860Z,44.15
2022-11-09T13:32:31.877Z,37.58
2022-11-09T13:34:57.639Z,41.97
2022-11-09T13:37:47.133Z,41.38
2022-11-09T13:40:41.858Z,46.67
2022-11-09T13:43:07.494Z,43.33
2022-11-09T13:45:35.395Z,41.00
2022-11-09T13:47:58.123Z,42.75
2022-11-09T13:50:24.310Z,38.22
2022-11-09T13:52:51.111Z,39.92
2022-11-09T13:55:32.137Z,38.70
2022-11-09T13:57:56.935Z,38.10
2022-11-09T14:00:23.553Z,43.03
2022-11-09T14:02:54.993Z,39.03
2022-11-09T14:05:31.258Z,41.05
2022-11-09T14:07:56.045Z,33.67
2022-11-09T14:10:43.736Z,40.55
2022-11-09T14:13:32.970Z,40.53
2022-11-09T14:16:02.595Z,41.63
2022-11-09T14:18:38.290Z,41.28
2022-11-09T14:21:22.416Z,44.60
2022-11-09T14:23:45.890Z,40.63
2022-11-09T14:26:09.344Z,43.83
2022-11-09T14:28:34.935Z,39.58
2022-11-09T14:30:58.165Z,34.75
2022-11-09T14:33:24.576Z,36.95
2022-11-09T14:35:48.862Z,34.65
2022-11-09T14:38:21.761Z,37.72
2022-11-09T14:40:47.142Z,39.78
2022-11-09T14:43:28.579Z,48.63
2022-11-09T14:45:53.565Z,38.75
2022-11-09T14:48:19.893Z,45.75
2022-11-09T14:50:42.912Z,40.08
2022-11-09T14:53:07.343Z,49.30
2022-11-09T14:55:33.332Z,49.38
2022-11-09T14:57:57.619Z,46.00
2022-11-09T15:00:29.714Z,42.97
2022-11-09T15:02:52.767Z,40.85
2022-11-09T15:05:47.888Z,42.65
2022-11-09T15:08:20.216Z,39.83
2022-11-09T15:10:51.078Z,48.25
2022-11-09T15:13:14.175Z,57.85
2022-11-09T15:15:38.850Z,59.47
2022-11-09T15:18:03.561Z,59.83
2022-11-09T15:20:30.581Z,123.28
2022-11-09T15:22:55.683Z,135.02
2022-11-09T15:25:28.319Z,190.75
2022-11-09T15:28:19.286Z,96.97
2022-11-09T15:30:46.211Z,110.90
2022-11-09T15:33:25.633Z,102.65
2022-11-09T15:35:52.387Z,97.55
2022-11-09T15:38:37.703Z,86.30
2022-11-09T15:41:00.517Z,79.15
2022-11-09T15:43:25.184Z,85.65
2022-11-09T15:45:48.281Z,69.07
2022-11-09T15:48:11.347Z,69.43
2022-11-09T15:50:34.807Z,124.22
2022-11-09T15:52:57.390Z,90.85
2022-11-09T15:55:22.867Z,67.55
2022-11-09T15:57:46.349Z,59.60
2022-11-09T16:00:19.406Z,57.08
2022-11-09T16:02:43.620Z,50.15
2022-11-09T16:05:07.400Z,54.72
2022-11-09T16:07:30.314Z,41.92
2022-11-09T16:09:53.027Z,48.45
2022-11-09T16:12:16.966Z,56.38
2022-11-09T16:14:40.267Z,63.83
2022-11-09T16:17:05.604Z,58.58
2022-11-09T16:19:28.433Z,60.05
2022-11-09T16:21:53.482Z,58.80
2022-11-09T16:24:18.145Z,64.68
2022-11-09T16:26:40.902Z,62.88
2022-11-09T16:29:03.794Z,53.75
2022-11-09T16:31:48.144Z,53.85
2022-11-09T16:34:12.283Z,61.42
2022-11-09T16:36:38.881Z,66.32
2022-11-09T16:39:09.540Z,68.50
2022-11-09T16:41:32.562Z,64.85
2022-11-09T16:43:55.548Z,80.55
2022-11-09T16:46:23.451Z,92.25
2022-11-09T16:48:46.720Z,156.95
2022-11-09T16:51:11.284Z,91.40
2022-11-09T16:53:34.042Z,110.00
2022-11-09T16:55:57.189Z,109.15
2022-11-09T16:58:20.365Z,81.80
2022-11-09T17:01:09.680Z,63.53
2022-11-09T17:03:29.441Z,66.90
2022-11-09T17:05:52.398Z,63.70
2022-11-09T17:08:16.968Z,57.83
2022-11-09T17:10:43.660Z,68.07
2022-11-09T17:13:07.515Z,59.25
2022-11-09T17:15:29.900Z,62.05
2022-11-09T17:17:52.690Z,68.85
2022-11-09T17:20:16.453Z,62.53
2022-11-09T17:22:45.896Z,73.15
2022-11-09T17:25:16.159Z,64.88
2022-11-09T17:27:40.034Z,60.65
2022-11-09T17:30:03.452Z,58.42
2022-11-09T17:32:28.400Z,71.75
2022-11-09T17:34:51.441Z,68.10
2022-11-09T17:37:14.361Z,74.50
2022-11-09T17:39:37.090Z,73.20
2022-11-09T17:42:02.423Z,62.30
2022-11-09T17:44:25.065Z,74.05
2022-11-09T17:46:47.717Z,67.80
2022-11-09T17:49:10.898Z,69.03
2022-11-09T17:51:33.846Z,73.30
2022-11-09T17:53:57.545Z,79.65
2022-11-09T17:56:20.494Z,70.88
2022-11-09T17:58:46.292Z,71.63
2022-11-09T18:01:10.380Z,84.63
2022-11-09T18:03:33.713Z,70.32
2022-11-09T18:05:56.724Z,65.05
2022-11-09T18:08:20.979Z,81.05
2022-11-09T18:10:45.928Z,73.70
2022-11-09T18:13:09.668Z,71.07
2022-11-09T18:15:35.055Z,77.18
2022-11-09T18:17:57.892Z,73.38
2022-11-09T18:20:20.715Z,62.33
2022-11-09T18:22:43.404Z,63.53
2022-11-09T18:25:06.656Z,57.75
2022-11-09T18:27:30.684Z,58.10
2022-11-09T18:29:56.317Z,59.85
2022-11-09T18:32:20.400Z,68.70
2022-11-09T18:34:43.153Z,61.20
2022-11-09T18:37:07.277Z,68.38
2022-11-09T18:39:31.050Z,67.68
2022-11-09T18:42:00.542Z,66.45
2022-11-09T18:44:23.407Z,59.83
2022-11-09T18:46:46.442Z,61.47
2022-11-09T18:49:14.280Z,60.47
2022-11-09T18:51:40.031Z,93.85
2022-11-09T18:54:02.952Z,132.60
2022-11-09T18:56:26.683Z,218.30
2022-11-09T18:58:50.639Z,500.50
2022-11-09T19:01:13.582Z,398.10
2022-11-09T19:03:36.408Z,354.98
2022-11-09T19:06:01.024Z,345.15
2022-11-09T19:08:38.507Z,323.27
2022-11-09T19:11:06.146Z,350.45
2022-11-09T19:13:28.594Z,385.85
2022-11-09T19:15:54.327Z,373.23
2022-11-09T19:18:20.965Z,331.77
2022-11-09T19:20:44.197Z,246.13
2022-11-09T19:23:08.084Z,200.60
2022-11-09T19:25:30.527Z,154.80
2022-11-09T19:27:53.287Z,155.15
2022-11-09T19:30:15.831Z,134.38
2022-11-09T19:32:38.667Z,127.85
2022-11-09T19:35:01.420Z,116.38
2022-11-09T19:37:24.582Z,115.18
2022-11-09T19:39:49.621Z,100.78
2022-11-09T19:42:13.333Z,123.05
2022-11-09T19:44:36.446Z,112.93
2022-11-09T19:46:59.752Z,123.40
2022-11-09T19:49:23.119Z,126.40
2022-11-09T19:51:45.776Z,119.78
2022-11-09T19:54:09.729Z,126.95
2022-11-09T19:56:37.124Z,117.07
2022-11-09T19:59:02.252Z,104.57
2022-11-09T20:01:25.529Z,97.22
2022-11-09T20:03:50.923Z,98.03
2022-11-09T20:06:13.796Z,97.63
2022-11-09T20:08:37.787Z,90.60
2022-11-09T20:11:06.626Z,93.68
2022-11-09T20:13:29.923Z,105.28
2022-11-09T20:15:52.533Z,88.43
2022-11-09T20:18:15.918Z,89.28
2022-11-09T20:20:38.984Z,95.85
2022-11-09T20:23:02.310Z,96.35
2022-11-09T20:25:25.259Z,91.13
2022-11-09T20:27:48.013Z,91.47
2022-11-09T20:30:14.621Z,85.28
2022-11-09T20:32:37.693Z,89.25
2022-11-09T20:35:00.491Z,90.38
2022-11-09T20:37:23.331Z,85.80
2022-11-09T20:39:46.600Z,80.35
2022-11-09T20:42:09.605Z,99.40
2022-11-09T20:44:32.118Z,88.78
2022-11-09T20:46:56.586Z,90.30
2022-11-09T20:49:19.429Z,86.57
2022-11-09T20:51:42.545Z,84.80
2022-11-09T20:54:07.660Z,85.05
2022-11-09T20:56:31.049Z,79.80
2022-11-09T20:58:54.160Z,85.80
2022-11-09T21:01:20.123Z,90.38
2022-11-09T21:03:45.491Z,85.03
2022-11-09T21:06:09.753Z,80.80
2022-11-09T21:08:33.392Z,99.72
2022-11-09T21:10:56.782Z,104.78
2022-11-09T21:13:19.456Z,110.03
2022-11-09T21:15:42.162Z,116.88
2022-11-09T21:18:05.654Z,109.97
2022-11-09T21:20:30.802Z,127.07
2022-11-09T21:23:12.148Z,118.25
2022-11-09T21:25:55.479Z,118.82
2022-11-09T21:28:35.976Z,118.40
2022-11-09T21:31:02.107Z,102.20
2022-11-09T21:33:24.681Z,101.13
2022-11-09T21:35:48.859Z,103.60
2022-11-09T21:38:11.997Z,119.93
2022-11-09T21:40:35.349Z,109.43
2022-11-09T21:42:58.209Z,110.95
2022-11-09T21:45:21.161Z,110.05
2022-11-09T21:47:43.911Z,101.55
2022-11-09T21:50:12.334Z,97.50
2022-11-09T21:52:37.173Z,103.57
2022-11-09T21:54:59.734Z,98.75
2022-11-09T21:57:22.279Z,104.80
2022-11-09T21:59:45.259Z,101.55
2022-11-09T22:02:11.600Z,99.97
2022-11-09T22:04:34.389Z,102.20
2022-11-09T22:06:57.532Z,95.40
2022-11-09T22:09:21.733Z,94.75
2022-11-09T22:12:01.967Z,112.53
2022-11-09T22:17:05.626Z,88.72
2022-11-09T22:19:50.956Z,110.43
2022-11-09T22:22:14.265Z,101.97
2022-11-09T22:24:38.488Z,113.35
2022-11-09T22:27:01.086Z,107.07
2022-11-09T22:29:24.548Z,103.28
2022-11-09T22:31:48.210Z,112.68
2022-11-09T22:34:11.253Z,110.15
2022-11-09T22:36:33.806Z,116.00
2022-11-09T22:38:57.934Z,114.00
2022-11-09T22:41:24.774Z,97.10
2022-11-09T22:43:48.179Z,101.30
2022-11-09T22:46:13.132Z,108.82
2022-11-09T22:48:37.446Z,120.50
2022-11-09T22:51:00.107Z,113.93
2022-11-09T22:53:23.177Z,117.20
2022-11-09T22:55:53.527Z,117.38
2022-11-09T23:00:41.815Z,118.68
2022-11-09T23:03:05.506Z,124.07
2022-11-09T23:05:28.402Z,117.53
2022-11-09T23:07:51.212Z,113.28
2022-11-09T23:10:13.966Z,115.07
2022-11-09T23:12:37.428Z,113.55
2022-11-09T23:15:12.779Z,119.45
2022-11-09T23:17:54.294Z,114.65
2022-11-09T23:20:17.397Z,104.57
2022-11-09T23:22:40.263Z,114.82
2022-11-09T23:25:20.311Z,105.25
2022-11-09T23:27:42.994Z,100.43
2022-11-09T23:30:08.166Z,100.55
2022-11-09T23:32:30.839Z,103.03
2022-11-09T23:34:53.936Z,124.57
2022-11-09T23:37:17.261Z,126.10
2022-11-09T23:39:39.757Z,125.75
2022-11-09T23:42:03.539Z,122.75
2022-11-09T23:44:26.433Z,118.78
2022-11-09T23:46:51.193Z,109.18
2022-11-09T23:49:13.658Z,115.25
2022-11-09T23:51:36.412Z,134.35
2022-11-09T23:53:59.130Z,142.38
2022-11-09T23:56:22.211Z,140.40
2022-11-09T23:58:47.945Z,138.23
